sensor_id;sensor_type;location;lat;lon;timestamp;P1;durP1;ratioP1;P2;durP2;ratioP2
14766;SDS011;7475;53.558;9.970;2022-07-22T00:02:16;26.02;;;23.23;;
14766;SDS011;7475;53.558;9.970;2022-07-22T00:04:41;25.77;;;23.05;;
14766;SDS011;7475;53.558;9.970;2022-07-22T00:07:07;24.05;;;21.58;;
14766;SDS011;7475;53.558;9.970;2022-07-22T00:09:32;23.95;;;21.42;;
14766;SDS011;7475;53.558;9.970;2022-07-22T00:11:58;22.35;;;20.25;;
14766;SDS011;7475;53.558;9.970;2022-07-22T00:14:23;22.20;;;19.83;;
14766;SDS011;7475;53.558;9.970;2022-07-22T00:16:49;22.48;;;20.27;;
14766;SDS011;7475;53.558;9.970;2022-07-22T00:19:14;22.10;;;17.65;;
14766;SDS011;7475;53.558;9.970;2022-07-22T00:21:39;20.87;;;17.10;;
14766;SDS011;7475;53.558;9.970;2022-07-22T00:24:04;21.88;;;16.75;;
14766;SDS011;7475;53.558;9.970;2022-07-22T00:26:29;15.35;;;12.77;;
14766;SDS011;7475;53.558;9.970;2022-07-22T00:28:55;15.27;;;12.10;;
14766;SDS011;7475;53.558;9.970;2022-07-22T00:31:20;16.13;;;11.25;;
14766;SDS011;7475;53.558;9.970;2022-07-22T00:33:45;12.60;;;11.30;;
14766;SDS011;7475;53.558;9.970;2022-07-22T00:36:11;12.73;;;11.45;;
14766;SDS011;7475;53.558;9.970;2022-07-22T00:38:36;12.38;;;10.38;;
14766;SDS011;7475;53.558;9.970;2022-07-22T00:41:01;17.20;;;9.90;;
14766;SDS011;7475;53.558;9.970;2022-07-22T00:43:26;11.45;;;9.23;;
14766;SDS011;7475;53.558;9.970;2022-07-22T00:45:52;10.90;;;7.85;;
14766;SDS011;7475;53.558;9.970;2022-07-22T00:48:17;12.68;;;8.18;;
14766;SDS011;7475;53.558;9.970;2022-07-22T00:50:44;12.60;;;7.63;;
14766;SDS011;7475;53.558;9.970;2022-07-22T00:53:10;8.85;;;6.35;;
14766;SDS011;7475;53.558;9.970;2022-07-22T00:55:35;5.95;;;5.38;;
14766;SDS011;7475;53.558;9.970;2022-07-22T00:58:02;5.95;;;5.35;;
14766;SDS011;7475;53.558;9.970;2022-07-22T01:00:27;8.02;;;5.68;;
14766;SDS011;7475;53.558;9.970;2022-07-22T01:02:52;6.90;;;5.60;;
14766;SDS011;7475;53.558;9.970;2022-07-22T01:05:18;5.43;;;5.03;;
14766;SDS011;7475;53.558;9.970;2022-07-22T01:07:44;5.63;;;5.07;;
14766;SDS011;7475;53.558;9.970;2022-07-22T01:10:09;4.70;;;3.70;;
14766;SDS011;7475;53.558;9.970;2022-07-22T01:12:35;3.65;;;3.20;;
14766;SDS011;7475;53.558;9.970;2022-07-22T01:15:00;3.40;;;2.60;;
14766;SDS011;7475;53.558;9.970;2022-07-22T01:17:26;4.63;;;3.55;;
14766;SDS011;7475;53.558;9.970;2022-07-22T01:19:51;5.47;;;4.07;;
14766;SDS011;7475;53.558;9.970;2022-07-22T01:22:16;5.10;;;4.60;;
14766;SDS011;7475;53.558;9.970;2022-07-22T01:24:41;6.23;;;3.60;;
14766;SDS011;7475;53.558;9.970;2022-07-22T01:27:07;5.93;;;3.38;;
14766;SDS011;7475;53.558;9.970;2022-07-22T01:29:32;4.80;;;3.65;;
14766;SDS011;7475;53.558;9.970;2022-07-22T01:31:58;4.47;;;3.90;;
14766;SDS011;7475;53.558;9.970;2022-07-22T01:34:23;7.57;;;4.80;;
14766;SDS011;7475;53.558;9.970;2022-07-22T01:36:49;9.82;;;5.38;;
14766;SDS011;7475;53.558;9.970;2022-07-22T01:39:14;6.70;;;5.10;;
14766;SDS011;7475;53.558;9.970;2022-07-22T01:41:40;8.20;;;5.68;;
14766;SDS011;7475;53.558;9.970;2022-07-22T01:44:05;6.78;;;5.47;;
14766;SDS011;7475;53.558;9.970;2022-07-22T01:46:30;8.25;;;6.18;;
14766;SDS011;7475;53.558;9.970;2022-07-22T01:48:56;9.38;;;6.47;;
14766;SDS011;7475;53.558;9.970;2022-07-22T01:51:21;9.75;;;6.00;;
14766;SDS011;7475;53.558;9.970;2022-07-22T01:53:47;11.77;;;6.82;;
14766;SDS011;7475;53.558;9.970;2022-07-22T01:56:12;9.98;;;5.95;;
14766;SDS011;7475;53.558;9.970;2022-07-22T01:58:37;9.93;;;6.45;;
14766;SDS011;7475;53.558;9.970;2022-07-22T02:01:03;7.40;;;5.80;;
14766;SDS011;7475;53.558;9.970;2022-07-22T02:03:28;17.23;;;6.70;;
14766;SDS011;7475;53.558;9.970;2022-07-22T02:05:53;11.70;;;6.28;;
14766;SDS011;7475;53.558;9.970;2022-07-22T02:08:18;10.55;;;6.32;;
14766;SDS011;7475;53.558;9.970;2022-07-22T02:10:44;8.48;;;5.88;;
14766;SDS011;7475;53.558;9.970;2022-07-22T02:13:09;12.00;;;4.88;;
14766;SDS011;7475;53.558;9.970;2022-07-22T02:15:35;10.02;;;5.28;;
14766;SDS011;7475;53.558;9.970;2022-07-22T02:18:00;9.27;;;4.72;;
14766;SDS011;7475;53.558;9.970;2022-07-22T02:20:25;8.40;;;4.55;;
14766;SDS011;7475;53.558;9.970;2022-07-22T02:22:50;9.75;;;4.40;;
14766;SDS011;7475;53.558;9.970;2022-07-22T02:25:15;9.43;;;4.60;;
14766;SDS011;7475;53.558;9.970;2022-07-22T02:27:41;6.95;;;4.10;;
14766;SDS011;7475;53.558;9.970;2022-07-22T02:30:06;12.65;;;3.83;;
14766;SDS011;7475;53.558;9.970;2022-07-22T02:32:32;11.18;;;3.72;;
14766;SDS011;7475;53.558;9.970;2022-07-22T02:34:57;7.97;;;3.28;;
14766;SDS011;7475;53.558;9.970;2022-07-22T02:37:23;10.55;;;3.40;;
14766;SDS011;7475;53.558;9.970;2022-07-22T02:39:49;6.72;;;3.42;;
14766;SDS011;7475;53.558;9.970;2022-07-22T02:42:14;8.27;;;3.40;;
14766;SDS011;7475;53.558;9.970;2022-07-22T02:44:39;9.00;;;3.28;;
14766;SDS011;7475;53.558;9.970;2022-07-22T02:47:05;11.45;;;3.45;;
14766;SDS011;7475;53.558;9.970;2022-07-22T02:49:30;9.73;;;3.20;;
14766;SDS011;7475;53.558;9.970;2022-07-22T02:51:55;9.98;;;2.80;;
14766;SDS011;7475;53.558;9.970;2022-07-22T02:54:21;9.63;;;2.90;;
14766;SDS011;7475;53.558;9.970;2022-07-22T02:56:46;9.93;;;2.80;;
14766;SDS011;7475;53.558;9.970;2022-07-22T02:59:11;7.85;;;3.08;;
14766;SDS011;7475;53.558;9.970;2022-07-22T03:01:36;9.90;;;3.30;;
14766;SDS011;7475;53.558;9.970;2022-07-22T03:04:01;10.35;;;3.50;;
14766;SDS011;7475;53.558;9.970;2022-07-22T03:06:27;4.88;;;3.22;;
14766;SDS011;7475;53.558;9.970;2022-07-22T03:08:52;9.53;;;3.50;;
14766;SDS011;7475;53.558;9.970;2022-07-22T03:11:17;7.15;;;3.50;;
14766;SDS011;7475;53.558;9.970;2022-07-22T03:13:42;10.53;;;3.87;;
14766;SDS011;7475;53.558;9.970;2022-07-22T03:16:07;9.53;;;4.00;;
14766;SDS011;7475;53.558;9.970;2022-07-22T03:18:33;13.00;;;3.97;;
14766;SDS011;7475;53.558;9.970;2022-07-22T03:20:59;12.55;;;4.72;;
14766;SDS011;7475;53.558;9.970;2022-07-22T03:23:24;8.07;;;4.77;;
14766;SDS011;7475;53.558;9.970;2022-07-22T03:25:49;10.35;;;5.28;;
14766;SDS011;7475;53.558;9.970;2022-07-22T03:28:14;10.50;;;4.80;;
14766;SDS011;7475;53.558;9.970;2022-07-22T03:30:40;10.52;;;5.45;;
14766;SDS011;7475;53.558;9.970;2022-07-22T03:33:05;12.43;;;4.80;;
14766;SDS011;7475;53.558;9.970;2022-07-22T03:35:30;9.50;;;4.88;;
14766;SDS011;7475;53.558;9.970;2022-07-22T03:37:55;9.23;;;4.45;;
14766;SDS011;7475;53.558;9.970;2022-07-22T03:40:20;13.02;;;4.80;;
14766;SDS011;7475;53.558;9.970;2022-07-22T03:42:46;11.10;;;4.47;;
14766;SDS011;7475;53.558;9.970;2022-07-22T03:45:11;9.40;;;3.97;;
14766;SDS011;7475;53.558;9.970;2022-07-22T03:47:36;12.07;;;4.18;;
14766;SDS011;7475;53.558;9.970;2022-07-22T03:50:01;6.95;;;3.72;;
14766;SDS011;7475;53.558;9.970;2022-07-22T03:52:27;9.95;;;3.50;;
14766;SDS011;7475;53.558;9.970;2022-07-22T03:54:52;6.07;;;2.88;;
14766;SDS011;7475;53.558;9.970;2022-07-22T03:57:18;8.05;;;3.05;;
14766;SDS011;7475;53.558;9.970;2022-07-22T03:59:44;5.78;;;3.00;;
14766;SDS011;7475;53.558;9.970;2022-07-22T04:02:09;8.52;;;3.00;;
14766;SDS011;7475;53.558;9.970;2022-07-22T04:04:34;10.13;;;3.13;;
14766;SDS011;7475;53.558;9.970;2022-07-22T04:07:00;10.10;;;2.60;;
14766;SDS011;7475;53.558;9.970;2022-07-22T04:09:25;6.33;;;2.30;;
14766;SDS011;7475;53.558;9.970;2022-07-22T04:11:50;6.23;;;2.33;;
14766;SDS011;7475;53.558;9.970;2022-07-22T04:14:15;8.57;;;2.72;;
14766;SDS011;7475;53.558;9.970;2022-07-22T04:16:41;7.63;;;2.78;;
14766;SDS011;7475;53.558;9.970;2022-07-22T04:19:06;5.10;;;2.60;;
14766;SDS011;7475;53.558;9.970;2022-07-22T04:21:31;8.45;;;2.28;;
14766;SDS011;7475;53.558;9.970;2022-07-22T04:23:56;6.97;;;2.10;;
14766;SDS011;7475;53.558;9.970;2022-07-22T04:26:22;7.70;;;2.22;;
14766;SDS011;7475;53.558;9.970;2022-07-22T04:28:47;5.15;;;2.42;;
14766;SDS011;7475;53.558;9.970;2022-07-22T04:31:12;10.43;;;2.83;;
14766;SDS011;7475;53.558;9.970;2022-07-22T04:33:37;7.22;;;2.50;;
14766;SDS011;7475;53.558;9.970;2022-07-22T04:36:03;6.85;;;2.58;;
14766;SDS011;7475;53.558;9.970;2022-07-22T04:38:28;6.13;;;3.00;;
14766;SDS011;7475;53.558;9.970;2022-07-22T04:40:53;6.20;;;2.65;;
14766;SDS011;7475;53.558;9.970;2022-07-22T04:43:18;4.10;;;2.25;;
14766;SDS011;7475;53.558;9.970;2022-07-22T04:45:44;4.65;;;2.45;;
14766;SDS011;7475;53.558;9.970;2022-07-22T04:48:09;4.60;;;2.57;;
14766;SDS011;7475;53.558;9.970;2022-07-22T04:50:35;6.10;;;3.30;;
14766;SDS011;7475;53.558;9.970;2022-07-22T04:53:01;7.28;;;2.92;;
14766;SDS011;7475;53.558;9.970;2022-07-22T04:55:26;5.10;;;3.00;;
14766;SDS011;7475;53.558;9.970;2022-07-22T04:57:51;12.90;;;3.17;;
14766;SDS011;7475;53.558;9.970;2022-07-22T05:00:16;7.23;;;3.30;;
14766;SDS011;7475;53.558;9.970;2022-07-22T05:02:42;10.38;;;3.60;;
14766;SDS011;7475;53.558;9.970;2022-07-22T05:05:07;8.18;;;2.88;;
14766;SDS011;7475;53.558;9.970;2022-07-22T05:07:32;13.07;;;3.33;;
14766;SDS011;7475;53.558;9.970;2022-07-22T05:09:57;10.60;;;3.53;;
14766;SDS011;7475;53.558;9.970;2022-07-22T05:12:23;10.82;;;3.13;;
14766;SDS011;7475;53.558;9.970;2022-07-22T05:14:48;11.53;;;3.53;;
14766;SDS011;7475;53.558;9.970;2022-07-22T05:17:13;12.03;;;3.43;;
14766;SDS011;7475;53.558;9.970;2022-07-22T05:19:39;10.95;;;3.65;;
14766;SDS011;7475;53.558;9.970;2022-07-22T05:22:05;10.48;;;3.80;;
14766;SDS011;7475;53.558;9.970;2022-07-22T05:24:30;8.02;;;3.30;;
14766;SDS011;7475;53.558;9.970;2022-07-22T05:26:56;8.53;;;3.33;;
14766;SDS011;7475;53.558;9.970;2022-07-22T05:29:22;7.63;;;2.90;;
14766;SDS011;7475;53.558;9.970;2022-07-22T05:31:47;10.75;;;3.60;;
14766;SDS011;7475;53.558;9.970;2022-07-22T05:34:12;11.45;;;3.88;;
14766;SDS011;7475;53.558;9.970;2022-07-22T05:36:38;8.27;;;3.00;;
14766;SDS011;7475;53.558;9.970;2022-07-22T05:39:03;8.50;;;3.08;;
14766;SDS011;7475;53.558;9.970;2022-07-22T05:41:28;12.32;;;3.25;;
14766;SDS011;7475;53.558;9.970;2022-07-22T05:43:54;8.70;;;3.17;;
14766;SDS011;7475;53.558;9.970;2022-07-22T05:46:19;11.17;;;3.57;;
14766;SDS011;7475;53.558;9.970;2022-07-22T05:48:44;11.20;;;3.35;;
14766;SDS011;7475;53.558;9.970;2022-07-22T05:51:10;9.70;;;2.97;;
14766;SDS011;7475;53.558;9.970;2022-07-22T05:53:35;10.30;;;3.05;;
14766;SDS011;7475;53.558;9.970;2022-07-22T05:56:00;7.18;;;3.00;;
14766;SDS011;7475;53.558;9.970;2022-07-22T05:58:25;6.45;;;2.55;;
14766;SDS011;7475;53.558;9.970;2022-07-22T06:00:51;8.55;;;3.13;;
14766;SDS011;7475;53.558;9.970;2022-07-22T06:03:16;8.07;;;2.60;;
14766;SDS011;7475;53.558;9.970;2022-07-22T06:05:41;9.03;;;3.23;;
14766;SDS011;7475;53.558;9.970;2022-07-22T06:08:06;6.75;;;2.95;;
14766;SDS011;7475;53.558;9.970;2022-07-22T06:10:32;11.87;;;3.50;;
14766;SDS011;7475;53.558;9.970;2022-07-22T06:12:57;12.00;;;3.50;;
14766;SDS011;7475;53.558;9.970;2022-07-22T06:15:22;9.27;;;3.60;;
14766;SDS011;7475;53.558;9.970;2022-07-22T06:17:47;9.70;;;3.38;;
14766;SDS011;7475;53.558;9.970;2022-07-22T06:20:13;7.70;;;3.30;;
14766;SDS011;7475;53.558;9.970;2022-07-22T06:22:41;11.70;;;4.03;;
14766;SDS011;7475;53.558;9.970;2022-07-22T06:25:06;11.00;;;3.35;;
14766;SDS011;7475;53.558;9.970;2022-07-22T06:27:32;12.45;;;4.65;;
14766;SDS011;7475;53.558;9.970;2022-07-22T06:29:59;12.63;;;4.25;;
14766;SDS011;7475;53.558;9.970;2022-07-22T06:32:24;11.47;;;4.20;;
14766;SDS011;7475;53.558;9.970;2022-07-22T06:34:49;13.27;;;3.57;;
14766;SDS011;7475;53.558;9.970;2022-07-22T06:37:14;11.82;;;3.33;;
14766;SDS011;7475;53.558;9.970;2022-07-22T06:39:40;10.40;;;3.50;;
14766;SDS011;7475;53.558;9.970;2022-07-22T06:42:05;14.50;;;4.38;;
14766;SDS011;7475;53.558;9.970;2022-07-22T06:44:30;10.85;;;4.15;;
14766;SDS011;7475;53.558;9.970;2022-07-22T06:46:55;10.67;;;3.20;;
14766;SDS011;7475;53.558;9.970;2022-07-22T06:49:20;8.83;;;3.53;;
14766;SDS011;7475;53.558;9.970;2022-07-22T06:51:46;8.85;;;3.63;;
14766;SDS011;7475;53.558;9.970;2022-07-22T06:54:11;8.02;;;3.13;;
14766;SDS011;7475;53.558;9.970;2022-07-22T06:56:36;10.93;;;3.38;;
14766;SDS011;7475;53.558;9.970;2022-07-22T06:59:02;13.25;;;3.38;;
14766;SDS011;7475;53.558;9.970;2022-07-22T07:01:27;11.27;;;3.67;;
14766;SDS011;7475;53.558;9.970;2022-07-22T07:03:52;13.02;;;3.42;;
14766;SDS011;7475;53.558;9.970;2022-07-22T07:06:17;8.20;;;3.77;;
14766;SDS011;7475;53.558;9.970;2022-07-22T07:08:42;9.40;;;2.63;;
14766;SDS011;7475;53.558;9.970;2022-07-22T07:11:08;9.82;;;3.03;;
14766;SDS011;7475;53.558;9.970;2022-07-22T07:13:33;11.52;;;3.17;;
14766;SDS011;7475;53.558;9.970;2022-07-22T07:15:58;14.30;;;3.05;;
14766;SDS011;7475;53.558;9.970;2022-07-22T07:18:24;8.77;;;2.40;;
14766;SDS011;7475;53.558;9.970;2022-07-22T07:20:49;11.80;;;3.15;;
14766;SDS011;7475;53.558;9.970;2022-07-22T07:23:15;11.40;;;2.63;;
14766;SDS011;7475;53.558;9.970;2022-07-22T07:25:40;11.57;;;3.03;;
14766;SDS011;7475;53.558;9.970;2022-07-22T07:28:05;8.25;;;2.30;;
14766;SDS011;7475;53.558;9.970;2022-07-22T07:30:31;12.93;;;3.17;;
14766;SDS011;7475;53.558;9.970;2022-07-22T07:32:56;9.57;;;2.95;;
14766;SDS011;7475;53.558;9.970;2022-07-22T07:35:21;10.90;;;3.17;;
14766;SDS011;7475;53.558;9.970;2022-07-22T07:37:46;12.20;;;2.80;;
14766;SDS011;7475;53.558;9.970;2022-07-22T07:40:11;9.98;;;3.28;;
14766;SDS011;7475;53.558;9.970;2022-07-22T07:42:37;9.25;;;2.50;;
14766;SDS011;7475;53.558;9.970;2022-07-22T07:45:02;7.28;;;2.70;;
14766;SDS011;7475;53.558;9.970;2022-07-22T07:47:27;9.63;;;3.05;;
14766;SDS011;7475;53.558;9.970;2022-07-22T07:49:53;11.48;;;2.97;;
14766;SDS011;7475;53.558;9.970;2022-07-22T07:52:18;8.43;;;2.53;;
14766;SDS011;7475;53.558;9.970;2022-07-22T07:54:44;7.00;;;2.83;;
14766;SDS011;7475;53.558;9.970;2022-07-22T07:57:09;10.40;;;2.58;;
14766;SDS011;7475;53.558;9.970;2022-07-22T07:59:38;9.73;;;2.60;;
14766;SDS011;7475;53.558;9.970;2022-07-22T08:02:03;3.80;;;1.65;;
14766;SDS011;7475;53.558;9.970;2022-07-22T08:04:30;7.18;;;2.33;;
14766;SDS011;7475;53.558;9.970;2022-07-22T08:06:56;5.70;;;2.08;;
14766;SDS011;7475;53.558;9.970;2022-07-22T08:09:22;6.97;;;2.40;;
14766;SDS011;7475;53.558;9.970;2022-07-22T08:11:47;7.35;;;2.28;;
14766;SDS011;7475;53.558;9.970;2022-07-22T08:14:12;9.90;;;2.30;;
14766;SDS011;7475;53.558;9.970;2022-07-22T08:16:37;11.48;;;2.83;;
14766;SDS011;7475;53.558;9.970;2022-07-22T08:19:03;10.40;;;3.03;;
14766;SDS011;7475;53.558;9.970;2022-07-22T08:21:28;10.15;;;2.67;;
14766;SDS011;7475;53.558;9.970;2022-07-22T08:23:53;10.07;;;2.37;;
14766;SDS011;7475;53.558;9.970;2022-07-22T08:26:18;5.93;;;1.80;;
14766;SDS011;7475;53.558;9.970;2022-07-22T08:28:43;12.40;;;2.40;;
14766;SDS011;7475;53.558;9.970;2022-07-22T08:31:09;8.00;;;1.88;;
14766;SDS011;7475;53.558;9.970;2022-07-22T08:33:34;6.47;;;1.67;;
14766;SDS011;7475;53.558;9.970;2022-07-22T08:36:00;4.50;;;1.70;;
14766;SDS011;7475;53.558;9.970;2022-07-22T08:38:25;8.57;;;2.70;;
14766;SDS011;7475;53.558;9.970;2022-07-22T08:40:52;10.65;;;2.13;;
14766;SDS011;7475;53.558;9.970;2022-07-22T08:43:18;7.22;;;2.22;;
14766;SDS011;7475;53.558;9.970;2022-07-22T08:45:43;7.75;;;2.13;;
14766;SDS011;7475;53.558;9.970;2022-07-22T08:48:09;6.75;;;2.10;;
14766;SDS011;7475;53.558;9.970;2022-07-22T08:50:34;12.90;;;2.50;;
14766;SDS011;7475;53.558;9.970;2022-07-22T08:52:59;7.70;;;1.90;;
14766;SDS011;7475;53.558;9.970;2022-07-22T08:55:25;7.65;;;1.90;;
14766;SDS011;7475;53.558;9.970;2022-07-22T08:57:50;7.57;;;1.92;;
14766;SDS011;7475;53.558;9.970;2022-07-22T09:00:20;6.25;;;1.88;;
14766;SDS011;7475;53.558;9.970;2022-07-22T09:02:46;8.85;;;2.00;;
14766;SDS011;7475;53.558;9.970;2022-07-22T09:05:12;8.55;;;2.15;;
14766;SDS011;7475;53.558;9.970;2022-07-22T09:07:41;8.90;;;1.50;;
14766;SDS011;7475;53.558;9.970;2022-07-22T09:10:11;11.70;;;2.38;;
14766;SDS011;7475;53.558;9.970;2022-07-22T09:12:55;7.45;;;2.13;;
14766;SDS011;7475;53.558;9.970;2022-07-22T09:15:27;7.22;;;2.47;;
14766;SDS011;7475;53.558;9.970;2022-07-22T09:17:53;9.15;;;2.17;;
14766;SDS011;7475;53.558;9.970;2022-07-22T09:20:18;10.10;;;2.00;;
14766;SDS011;7475;53.558;9.970;2022-07-22T09:22:44;6.50;;;1.90;;
14766;SDS011;7475;53.558;9.970;2022-07-22T09:25:16;13.45;;;2.10;;
14766;SDS011;7475;53.558;9.970;2022-07-22T09:27:42;7.50;;;2.33;;
14766;SDS011;7475;53.558;9.970;2022-07-22T09:30:11;5.70;;;1.90;;
14766;SDS011;7475;53.558;9.970;2022-07-22T09:32:40;4.25;;;1.60;;
14766;SDS011;7475;53.558;9.970;2022-07-22T09:35:06;6.22;;;1.67;;
14766;SDS011;7475;53.558;9.970;2022-07-22T09:37:32;5.50;;;2.00;;
14766;SDS011;7475;53.558;9.970;2022-07-22T09:40:11;6.33;;;1.77;;
14766;SDS011;7475;53.558;9.970;2022-07-22T09:42:43;9.05;;;1.90;;
14766;SDS011;7475;53.558;9.970;2022-07-22T09:45:08;5.88;;;1.80;;
14766;SDS011;7475;53.558;9.970;2022-07-22T09:47:34;7.10;;;1.67;;
14766;SDS011;7475;53.558;9.970;2022-07-22T09:49:59;7.35;;;1.60;;
14766;SDS011;7475;53.558;9.970;2022-07-22T09:52:24;5.22;;;1.50;;
14766;SDS011;7475;53.558;9.970;2022-07-22T09:54:50;4.90;;;1.33;;
14766;SDS011;7475;53.558;9.970;2022-07-22T09:57:15;7.85;;;2.03;;
14766;SDS011;7475;53.558;9.970;2022-07-22T09:59:40;6.47;;;1.95;;
14766;SDS011;7475;53.558;9.970;2022-07-22T10:02:06;4.07;;;1.63;;
14766;SDS011;7475;53.558;9.970;2022-07-22T10:04:33;7.88;;;1.83;;
14766;SDS011;7475;53.558;9.970;2022-07-22T10:06:59;3.90;;;1.40;;
14766;SDS011;7475;53.558;9.970;2022-07-22T10:09:25;3.40;;;1.20;;
14766;SDS011;7475;53.558;9.970;2022-07-22T10:11:51;6.15;;;1.70;;
14766;SDS011;7475;53.558;9.970;2022-07-22T10:14:17;5.35;;;1.42;;
14766;SDS011;7475;53.558;9.970;2022-07-22T10:16:42;8.45;;;1.80;;
14766;SDS011;7475;53.558;9.970;2022-07-22T10:19:08;5.85;;;1.63;;
14766;SDS011;7475;53.558;9.970;2022-07-22T10:21:34;6.68;;;2.13;;
14766;SDS011;7475;53.558;9.970;2022-07-22T10:29:31;8.85;;;1.90;;
14766;SDS011;7475;53.558;9.970;2022-07-22T10:34:40;7.53;;;2.00;;
14766;SDS011;7475;53.558;9.970;2022-07-22T10:37:35;4.82;;;1.70;;
14766;SDS011;7475;53.558;9.970;2022-07-22T10:43:02;6.38;;;1.90;;
14766;SDS011;7475;53.558;9.970;2022-07-22T10:45:20;4.07;;;1.52;;
14766;SDS011;7475;53.558;9.970;2022-07-22T10:47:52;7.15;;;1.70;;
14766;SDS011;7475;53.558;9.970;2022-07-22T10:55:30;3.50;;;1.63;;
14766;SDS011;7475;53.558;9.970;2022-07-22T10:57:55;3.63;;;1.58;;
14766;SDS011;7475;53.558;9.970;2022-07-22T11:00:21;4.70;;;1.63;;
14766;SDS011;7475;53.558;9.970;2022-07-22T11:02:46;5.93;;;1.73;;
14766;SDS011;7475;53.558;9.970;2022-07-22T11:05:11;5.72;;;1.80;;
14766;SDS011;7475;53.558;9.970;2022-07-22T11:07:43;4.47;;;1.48;;
14766;SDS011;7475;53.558;9.970;2022-07-22T11:10:12;5.97;;;1.40;;
14766;SDS011;7475;53.558;9.970;2022-07-22T11:12:38;5.53;;;1.45;;
14766;SDS011;7475;53.558;9.970;2022-07-22T11:15:03;7.35;;;1.33;;
14766;SDS011;7475;53.558;9.970;2022-07-22T11:17:31;9.88;;;2.20;;
14766;SDS011;7475;53.558;9.970;2022-07-22T11:19:59;5.10;;;1.50;;
14766;SDS011;7475;53.558;9.970;2022-07-22T11:22:25;8.10;;;2.20;;
14766;SDS011;7475;53.558;9.970;2022-07-22T11:24:50;5.65;;;1.75;;
14766;SDS011;7475;53.558;9.970;2022-07-22T11:27:16;5.93;;;1.80;;
14766;SDS011;7475;53.558;9.970;2022-07-22T11:29:42;3.97;;;1.38;;
14766;SDS011;7475;53.558;9.970;2022-07-22T11:32:11;6.35;;;1.30;;
14766;SDS011;7475;53.558;9.970;2022-07-22T11:34:38;7.22;;;1.90;;
14766;SDS011;7475;53.558;9.970;2022-07-22T11:37:07;5.97;;;1.70;;
14766;SDS011;7475;53.558;9.970;2022-07-22T11:39:32;5.07;;;1.63;;
14766;SDS011;7475;53.558;9.970;2022-07-22T11:41:58;6.03;;;1.50;;
14766;SDS011;7475;53.558;9.970;2022-07-22T11:44:33;6.43;;;2.03;;
14766;SDS011;7475;53.558;9.970;2022-07-22T11:46:58;5.93;;;1.90;;
14766;SDS011;7475;53.558;9.970;2022-07-22T11:49:24;4.75;;;1.60;;
14766;SDS011;7475;53.558;9.970;2022-07-22T11:51:50;6.65;;;1.77;;
14766;SDS011;7475;53.558;9.970;2022-07-22T11:54:15;6.45;;;2.10;;
14766;SDS011;7475;53.558;9.970;2022-07-22T11:56:41;5.53;;;1.50;;
14766;SDS011;7475;53.558;9.970;2022-07-22T11:59:07;7.05;;;1.85;;
14766;SDS011;7475;53.558;9.970;2022-07-22T12:01:34;5.65;;;1.75;;
14766;SDS011;7475;53.558;9.970;2022-07-22T12:04:04;6.20;;;1.80;;
14766;SDS011;7475;53.558;9.970;2022-07-22T12:06:30;6.50;;;1.70;;
14766;SDS011;7475;53.558;9.970;2022-07-22T12:09:15;8.55;;;4.65;;
14766;SDS011;7475;53.558;9.970;2022-07-22T12:11:41;21.65;;;13.68;;
14766;SDS011;7475;53.558;9.970;2022-07-22T12:14:11;8.38;;;4.10;;
14766;SDS011;7475;53.558;9.970;2022-07-22T12:16:37;5.93;;;2.03;;
14766;SDS011;7475;53.558;9.970;2022-07-22T12:21:28;7.07;;;2.67;;
14766;SDS011;7475;53.558;9.970;2022-07-22T12:24:01;4.82;;;1.60;;
14766;SDS011;7475;53.558;9.970;2022-07-22T12:29:14;7.43;;;4.38;;
14766;SDS011;7475;53.558;9.970;2022-07-22T12:31:43;3.67;;;1.75;;
14766;SDS011;7475;53.558;9.970;2022-07-22T12:34:09;15.55;;;11.00;;
14766;SDS011;7475;53.558;9.970;2022-07-22T12:36:34;7.00;;;2.92;;
14766;SDS011;7475;53.558;9.970;2022-07-22T12:39:10;13.50;;;9.90;;
14766;SDS011;7475;53.558;9.970;2022-07-22T12:41:43;8.75;;;4.90;;
14766;SDS011;7475;53.558;9.970;2022-07-22T12:44:14;4.63;;;1.30;;
14766;SDS011;7475;53.558;9.970;2022-07-22T12:46:46;6.40;;;2.08;;
14766;SDS011;7475;53.558;9.970;2022-07-22T12:49:11;8.48;;;3.28;;
14766;SDS011;7475;53.558;9.970;2022-07-22T12:51:37;6.07;;;2.50;;
14766;SDS011;7475;53.558;9.970;2022-07-22T12:54:02;3.05;;;1.63;;
14766;SDS011;7475;53.558;9.970;2022-07-22T12:56:27;6.03;;;1.83;;
14766;SDS011;7475;53.558;9.970;2022-07-22T12:58:52;3.70;;;1.30;;
14766;SDS011;7475;53.558;9.970;2022-07-22T13:01:17;6.37;;;1.50;;
14766;SDS011;7475;53.558;9.970;2022-07-22T13:03:43;4.00;;;1.50;;
14766;SDS011;7475;53.558;9.970;2022-07-22T13:06:08;4.97;;;1.30;;
14766;SDS011;7475;53.558;9.970;2022-07-22T13:08:35;5.63;;;1.70;;
14766;SDS011;7475;53.558;9.970;2022-07-22T13:11:00;5.53;;;1.97;;
14766;SDS011;7475;53.558;9.970;2022-07-22T13:13:26;5.20;;;1.50;;
14766;SDS011;7475;53.558;9.970;2022-07-22T13:15:51;5.72;;;1.95;;
14766;SDS011;7475;53.558;9.970;2022-07-22T13:18:16;4.10;;;2.00;;
14766;SDS011;7475;53.558;9.970;2022-07-22T13:20:42;5.90;;;1.80;;
14766;SDS011;7475;53.558;9.970;2022-07-22T13:23:07;3.83;;;1.45;;
14766;SDS011;7475;53.558;9.970;2022-07-22T13:25:33;3.80;;;2.42;;
14766;SDS011;7475;53.558;9.970;2022-07-22T13:27:59;4.57;;;1.80;;
14766;SDS011;7475;53.558;9.970;2022-07-22T13:30:24;4.63;;;1.48;;
14766;SDS011;7475;53.558;9.970;2022-07-22T13:32:50;3.90;;;1.42;;
14766;SDS011;7475;53.558;9.970;2022-07-22T13:35:15;5.03;;;1.73;;
14766;SDS011;7475;53.558;9.970;2022-07-22T13:37:41;5.15;;;1.58;;
14766;SDS011;7475;53.558;9.970;2022-07-22T13:40:06;4.72;;;1.70;;
14766;SDS011;7475;53.558;9.970;2022-07-22T13:42:32;4.78;;;1.95;;
14766;SDS011;7475;53.558;9.970;2022-07-22T13:44:57;8.20;;;2.97;;
14766;SDS011;7475;53.558;9.970;2022-07-22T13:47:23;4.32;;;2.05;;
14766;SDS011;7475;53.558;9.970;2022-07-22T13:49:48;6.68;;;1.98;;
14766;SDS011;7475;53.558;9.970;2022-07-22T13:52:14;5.03;;;1.60;;
14766;SDS011;7475;53.558;9.970;2022-07-22T13:54:39;6.40;;;2.00;;
14766;SDS011;7475;53.558;9.970;2022-07-22T13:57:05;2.72;;;1.33;;
14766;SDS011;7475;53.558;9.970;2022-07-22T13:59:30;5.53;;;1.63;;
14766;SDS011;7475;53.558;9.970;2022-07-22T14:01:56;3.72;;;1.70;;
14766;SDS011;7475;53.558;9.970;2022-07-22T14:04:21;4.28;;;1.83;;
14766;SDS011;7475;53.558;9.970;2022-07-22T14:06:47;3.92;;;1.90;;
14766;SDS011;7475;53.558;9.970;2022-07-22T14:09:12;5.18;;;1.50;;
14766;SDS011;7475;53.558;9.970;2022-07-22T14:11:37;5.38;;;2.53;;
14766;SDS011;7475;53.558;9.970;2022-07-22T14:14:03;3.83;;;1.40;;
14766;SDS011;7475;53.558;9.970;2022-07-22T14:16:28;3.80;;;1.92;;
14766;SDS011;7475;53.558;9.970;2022-07-22T14:19:00;3.45;;;1.92;;
14766;SDS011;7475;53.558;9.970;2022-07-22T14:21:25;6.75;;;2.72;;
14766;SDS011;7475;53.558;9.970;2022-07-22T14:23:50;5.93;;;2.10;;
14766;SDS011;7475;53.558;9.970;2022-07-22T14:26:15;4.60;;;2.17;;
14766;SDS011;7475;53.558;9.970;2022-07-22T14:28:40;5.07;;;1.90;;
14766;SDS011;7475;53.558;9.970;2022-07-22T14:31:06;4.90;;;1.70;;
14766;SDS011;7475;53.558;9.970;2022-07-22T14:33:31;4.05;;;1.40;;
14766;SDS011;7475;53.558;9.970;2022-07-22T14:35:56;3.37;;;1.33;;
14766;SDS011;7475;53.558;9.970;2022-07-22T14:38:21;6.95;;;1.95;;
14766;SDS011;7475;53.558;9.970;2022-07-22T14:40:46;4.47;;;2.22;;
14766;SDS011;7475;53.558;9.970;2022-07-22T14:43:12;4.13;;;1.57;;
14766;SDS011;7475;53.558;9.970;2022-07-22T14:45:37;5.50;;;1.80;;
14766;SDS011;7475;53.558;9.970;2022-07-22T14:48:02;5.17;;;1.90;;
14766;SDS011;7475;53.558;9.970;2022-07-22T14:50:27;4.25;;;1.80;;
14766;SDS011;7475;53.558;9.970;2022-07-22T14:52:52;4.25;;;1.55;;
14766;SDS011;7475;53.558;9.970;2022-07-22T14:55:18;8.10;;;2.40;;
14766;SDS011;7475;53.558;9.970;2022-07-22T14:57:43;4.00;;;1.75;;
14766;SDS011;7475;53.558;9.970;2022-07-22T15:00:08;5.13;;;1.60;;
14766;SDS011;7475;53.558;9.970;2022-07-22T15:02:34;7.32;;;1.95;;
14766;SDS011;7475;53.558;9.970;2022-07-22T15:04:59;4.03;;;1.83;;
14766;SDS011;7475;53.558;9.970;2022-07-22T15:07:24;6.63;;;1.83;;
14766;SDS011;7475;53.558;9.970;2022-07-22T15:09:49;5.07;;;1.80;;
14766;SDS011;7475;53.558;9.970;2022-07-22T15:12:15;4.13;;;1.83;;